createdAt,value
2018-08-19T00:02:06.628Z,6.37
2018-08-19T00:04:35.480Z,7.00
2018-08-19T00:07:05.092Z,6.77
2018-08-19T00:09:33.904Z,6.97
2018-08-19T00:12:02.357Z,6.37
2018-08-19T00:14:35.069Z,6.77
2018-08-19T00:17:04.151Z,6.27
2018-08-19T00:19:34.100Z,6.30
2018-08-19T00:22:03.432Z,6.10
2018-08-19T00:24:31.724Z,6.03
2018-08-19T00:27:00.111Z,5.93
2018-08-19T00:29:32.687Z,5.50
2018-08-19T00:32:01.584Z,6.07
2018-08-19T00:34:32.430Z,6.40
2018-08-19T00:37:01.250Z,5.47
2018-08-19T00:39:29.598Z,5.77
2018-08-19T00:42:00.541Z,5.63
2018-08-19T00:44:28.988Z,6.10
2018-08-19T00:46:57.266Z,5.63
2018-08-19T00:49:25.679Z,5.97
2018-08-19T00:52:01.252Z,5.20
2018-08-19T00:54:30.809Z,5.50
2018-08-19T00:57:00.209Z,5.60
2018-08-19T00:59:32.409Z,5.10
2018-08-19T01:02:00.776Z,5.03
2018-08-19T01:04:29.166Z,5.67
2018-08-19T01:06:58.842Z,5.77
2018-08-19T01:09:30.340Z,5.37
2018-08-19T01:11:58.775Z,5.27
2018-08-19T01:14:27.147Z,5.20
2018-08-19T01:16:55.544Z,5.40
2018-08-19T01:19:23.936Z,5.17
2018-08-19T01:21:53.430Z,5.40
2018-08-19T01:24:22.064Z,5.40
2018-08-19T01:26:50.441Z,5.50
2018-08-19T01:29:36.026Z,5.20
2018-08-19T01:32:11.459Z,5.30
2018-08-19T01:34:42.469Z,5.40
2018-08-19T01:37:10.978Z,5.57
2018-08-19T01:39:39.525Z,5.23
2018-08-19T01:42:08.507Z,5.17
2018-08-19T01:44:36.898Z,5.87
2018-08-19T01:47:05.298Z,5.73
2018-08-19T01:49:33.616Z,5.20
2018-08-19T01:52:01.919Z,6.03
2018-08-19T01:54:30.642Z,5.37
2018-08-19T01:57:00.025Z,5.53
2018-08-19T01:59:30.335Z,5.00
2018-08-19T02:02:01.540Z,5.07
2018-08-19T02:04:31.692Z,5.47
2018-08-19T02:07:00.352Z,5.27
2018-08-19T02:09:28.688Z,5.60
2018-08-19T02:12:01.059Z,5.63
2018-08-19T02:14:29.451Z,5.47
2018-08-19T02:16:58.020Z,5.30
2018-08-19T02:19:26.379Z,5.53
2018-08-19T02:21:54.778Z,5.00
2018-08-19T02:24:23.172Z,5.20
2018-08-19T02:26:51.511Z,5.10
2018-08-19T02:29:36.067Z,5.33
2018-08-19T02:32:05.904Z,5.47
2018-08-19T02:34:35.390Z,5.50
2018-08-19T02:37:07.793Z,5.30
2018-08-19T02:39:38.486Z,5.23
2018-08-19T02:42:25.017Z,5.67
2018-08-19T02:44:55.609Z,6.10
2018-08-19T02:47:23.884Z,5.77
2018-08-19T02:49:52.294Z,5.90
2018-08-19T02:52:27.133Z,5.77
2018-08-19T02:54:56.733Z,5.87
2018-08-19T02:57:25.435Z,5.77
2018-08-19T02:59:53.791Z,7.00
2018-08-19T03:02:32.547Z,6.33
2018-08-19T03:05:02.949Z,6.33
2018-08-19T03:07:32.048Z,5.80
2018-08-19T03:10:06.082Z,5.70
2018-08-19T03:12:34.465Z,5.70
2018-08-19T03:15:15.891Z,6.10
2018-08-19T03:17:46.943Z,5.97
2018-08-19T03:20:15.199Z,5.60
2018-08-19T03:22:43.538Z,5.53
2018-08-19T03:25:13.896Z,5.67
2018-08-19T03:27:42.146Z,6.03
2018-08-19T03:30:13.124Z,5.87
2018-08-19T03:32:46.446Z,5.70
2018-08-19T03:35:16.980Z,6.00
2018-08-19T03:37:45.369Z,5.57
2018-08-19T03:40:13.919Z,5.57
2018-08-19T03:42:43.200Z,5.43
2018-08-19T03:45:16.889Z,5.10
2018-08-19T03:47:45.387Z,6.10
2018-08-19T03:50:20.060Z,6.40
2018-08-19T03:52:48.542Z,5.83
2018-08-19T03:55:23.245Z,5.37
2018-08-19T03:57:51.969Z,6.20
2018-08-19T04:00:20.639Z,5.73
2018-08-19T04:02:49.978Z,5.77
2018-08-19T04:05:28.256Z,5.60
2018-08-19T04:07:56.628Z,5.90
2018-08-19T04:10:25.964Z,5.47
2018-08-19T04:12:54.241Z,6.07
2018-08-19T04:15:22.507Z,5.53
2018-08-19T04:17:50.841Z,5.67
2018-08-19T04:20:21.115Z,6.20
2018-08-19T04:22:53.346Z,5.80
2018-08-19T04:25:25.900Z,6.10
2018-08-19T04:27:54.254Z,5.90
2018-08-19T04:30:25.585Z,5.73
2018-08-19T04:32:54.941Z,5.97
2018-08-19T04:35:23.256Z,6.17
2018-08-19T04:37:51.566Z,6.33
2018-08-19T04:40:19.986Z,6.03
2018-08-19T04:42:48.297Z,6.47
2018-08-19T04:45:17.631Z,6.10
2018-08-19T04:47:49.759Z,6.43
2018-08-19T04:50:20.096Z,5.90
2018-08-19T04:52:48.474Z,6.53
2018-08-19T04:55:16.788Z,6.20
2018-08-19T04:57:45.129Z,6.40
2018-08-19T05:00:18.432Z,6.50
2018-08-19T05:02:46.719Z,6.03
2018-08-19T05:05:14.971Z,6.17
2018-08-19T05:07:43.236Z,6.40
2018-08-19T05:10:11.527Z,5.90
2018-08-19T05:12:41.328Z,6.20
2018-08-19T05:15:10.672Z,5.80
2018-08-19T05:17:39.047Z,6.37
2018-08-19T05:20:13.788Z,6.73
2018-08-19T05:22:42.428Z,6.83
2018-08-19T05:25:10.733Z,7.70
2018-08-19T05:27:39.052Z,7.93
2018-08-19T05:30:08.154Z,8.70
2018-08-19T05:32:38.080Z,8.40
2018-08-19T05:35:06.411Z,8.47
2018-08-19T05:37:34.771Z,8.37
2018-08-19T05:40:03.048Z,8.57
2018-08-19T05:42:33.349Z,8.50
2018-08-19T05:45:05.699Z,9.40
2018-08-19T05:47:34.014Z,8.53
2018-08-19T05:50:02.300Z,8.73
2018-08-19T05:52:31.173Z,9.50
2018-08-19T05:55:00.405Z,9.97
2018-08-19T05:57:33.405Z,9.50
2018-08-19T06:00:08.396Z,9.20
2018-08-19T06:02:43.293Z,9.53
2018-08-19T06:05:11.627Z,9.30
2018-08-19T06:07:40.032Z,8.73
2018-08-19T06:10:08.295Z,8.67
2018-08-19T06:12:36.672Z,8.47
2018-08-19T06:15:06.951Z,7.70
2018-08-19T06:17:39.285Z,8.50
2018-08-19T06:20:07.654Z,7.80
2018-08-19T06:22:40.231Z,7.73
2018-08-19T06:25:09.208Z,7.73
2018-08-19T06:27:42.735Z,8.00
2018-08-19T06:30:11.388Z,7.73
2018-08-19T06:32:39.710Z,7.70
2018-08-19T06:35:08.279Z,8.07
2018-08-19T06:37:37.550Z,7.70
2018-08-19T06:40:07.184Z,7.17
2018-08-19T06:42:35.536Z,7.23
2018-08-19T06:45:04.122Z,7.43
2018-08-19T06:47:32.406Z,7.30
2018-08-19T06:50:01.261Z,7.63
2018-08-19T06:52:30.659Z,8.17
2018-08-19T06:54:59.039Z,7.37
2018-08-19T06:57:28.841Z,7.77
2018-08-19T06:59:57.716Z,7.67
2018-08-19T07:02:27.149Z,8.40
2018-08-19T07:04:55.477Z,7.80
2018-08-19T07:07:23.837Z,8.13
2018-08-19T07:09:52.257Z,8.17
2018-08-19T07:12:22.788Z,8.40
2018-08-19T07:14:51.397Z,8.43
2018-08-19T07:17:20.238Z,8.53
2018-08-19T07:19:48.677Z,8.10
2018-08-19T07:22:20.391Z,8.50
2018-08-19T07:24:48.739Z,8.30
2018-08-19T07:27:17.163Z,8.00
2018-08-19T07:29:45.524Z,7.97
2018-08-19T07:32:14.105Z,8.40
2018-08-19T07:34:42.496Z,8.23
2018-08-19T07:37:10.878Z,8.37
2018-08-19T07:39:45.885Z,7.77
2018-08-19T07:42:14.455Z,8.50
2018-08-19T07:44:42.859Z,8.27
2018-08-19T07:47:11.240Z,8.23
2018-08-19T07:49:39.571Z,9.07
2018-08-19T07:52:07.879Z,7.90
2018-08-19T07:54:36.400Z,8.57
2018-08-19T07:57:12.037Z,8.47
2018-08-19T07:59:41.004Z,8.17
2018-08-19T08:02:09.394Z,7.97
2018-08-19T08:04:40.786Z,7.57
2018-08-19T08:07:09.416Z,7.60
2018-08-19T08:09:38.009Z,7.73
2018-08-19T08:12:06.399Z,7.30
2018-08-19T08:14:34.776Z,6.63
2018-08-19T08:17:03.332Z,7.70
2018-08-19T08:19:31.702Z,7.27
2018-08-19T08:22:17.503Z,7.27
2018-08-19T08:24:45.873Z,7.23
2018-08-19T08:27:14.245Z,7.57
2018-08-19T08:29:42.568Z,6.80
2018-08-19T08:32:10.952Z,6.77
2018-08-19T08:34:39.324Z,6.73
2018-08-19T08:37:09.004Z,6.13
2018-08-19T08:39:37.993Z,5.90
2018-08-19T08:42:06.891Z,5.97
2018-08-19T08:44:35.314Z,5.57
2018-08-19T08:47:06.459Z,5.23
2018-08-19T08:49:40.257Z,5.10
2018-08-19T08:52:15.190Z,4.50
2018-08-19T08:55:16.395Z,4.83
2018-08-19T08:57:44.799Z,4.80
2018-08-19T09:00:14.751Z,4.50
2018-08-19T09:02:43.176Z,5.37
2018-08-19T09:05:12.148Z,4.90
2018-08-19T09:07:40.839Z,4.90
2018-08-19T09:10:11.331Z,5.03
2018-08-19T09:12:49.227Z,5.20
2018-08-19T09:15:17.644Z,5.23
2018-08-19T09:17:46.156Z,4.93
2018-08-19T09:20:14.505Z,5.40
2018-08-19T09:22:43.637Z,5.73
2018-08-19T09:25:12.231Z,5.80
2018-08-19T09:27:41.240Z,5.53
2018-08-19T09:30:11.766Z,5.70
2018-08-19T09:32:58.040Z,5.20
2018-08-19T09:35:27.750Z,4.60
2018-08-19T09:38:01.361Z,4.20
2018-08-19T09:40:29.885Z,5.67
2018-08-19T09:42:58.314Z,5.03
2018-08-19T09:45:26.768Z,3.90
2018-08-19T09:47:55.179Z,4.10
2018-08-19T09:50:23.385Z,5.13
2018-08-19T09:52:51.775Z,3.97
2018-08-19T09:55:24.923Z,6.30
2018-08-19T09:57:55.644Z,4.20
2018-08-19T10:00:24.921Z,4.10
2018-08-19T10:02:53.201Z,3.80
2018-08-19T10:05:23.579Z,3.50
2018-08-19T10:07:53.639Z,3.77
2018-08-19T10:10:23.003Z,3.90
2018-08-19T10:12:51.429Z,3.67
2018-08-19T10:15:19.930Z,3.57
2018-08-19T10:17:48.433Z,3.80
